sensor_id;sensor_type;location;lat;lon;timestamp;temperature;humidity
9949;DHT22;5013;51.840;8.276;2023-06-04T00:01:26;11.70;99.90
9949;DHT22;5013;51.840;8.276;2023-06-04T00:03:51;11.70;99.90
9949;DHT22;5013;51.840;8.276;2023-06-04T00:06:18;11.80;99.90
9949;DHT22;5013;51.840;8.276;2023-06-04T00:08:43;11.80;99.90
9949;DHT22;5013;51.840;8.276;2023-06-04T00:11:09;11.80;99.90
9949;DHT22;5013;51.840;8.276;2023-06-04T00:13:35;11.80;99.90
9949;DHT22;5013;51.840;8.276;2023-06-04T00:16:00;11.70;99.90
9949;DHT22;5013;51.840;8.276;2023-06-04T00:18:26;11.60;99.90
9949;DHT22;5013;51.840;8.276;2023-06-04T00:20:51;11.60;99.90
9949;DHT22;5013;51.840;8.276;2023-06-04T00:23:17;11.60;99.90
9949;DHT22;5013;51.840;8.276;2023-06-04T00:25:42;11.70;99.90
9949;DHT22;5013;51.840;8.276;2023-06-04T00:28:08;11.60;99.90
9949;DHT22;5013;51.840;8.276;2023-06-04T00:30:33;11.60;99.90
9949;DHT22;5013;51.840;8.276;2023-06-04T00:33:00;11.60;99.90
9949;DHT22;5013;51.840;8.276;2023-06-04T00:35:26;11.60;99.90
9949;DHT22;5013;51.840;8.276;2023-06-04T00:37:51;11.60;99.90
9949;DHT22;5013;51.840;8.276;2023-06-04T00:40:17;11.70;99.90
9949;DHT22;5013;51.840;8.276;2023-06-04T00:42:44;11.70;99.90
9949;DHT22;5013;51.840;8.276;2023-06-04T00:45:10;11.80;99.90
9949;DHT22;5013;51.840;8.276;2023-06-04T00:47:36;11.70;99.90
9949;DHT22;5013;51.840;8.276;2023-06-04T00:50:02;11.70;99.90
9949;DHT22;5013;51.840;8.276;2023-06-04T00:52:28;11.70;99.90
9949;DHT22;5013;51.840;8.276;2023-06-04T00:54:53;11.60;99.90
9949;DHT22;5013;51.840;8.276;2023-06-04T00:57:22;11.50;99.90
9949;DHT22;5013;51.840;8.276;2023-06-04T00:59:48;11.50;99.90
9949;DHT22;5013;51.840;8.276;2023-06-04T01:02:21;11.50;99.90
9949;DHT22;5013;51.840;8.276;2023-06-04T01:05:06;11.60;99.90
9949;DHT22;5013;51.840;8.276;2023-06-04T01:07:36;11.60;99.90
9949;DHT22;5013;51.840;8.276;2023-06-04T01:10:02;11.50;99.90
9949;DHT22;5013;51.840;8.276;2023-06-04T01:12:28;11.50;1.00
9949;DHT22;5013;51.840;8.276;2023-06-04T01:14:53;11.40;1.00
9949;DHT22;5013;51.840;8.276;2023-06-04T01:19:57;11.40;1.00
9949;DHT22;5013;51.840;8.276;2023-06-04T01:22:32;11.40;1.00
9949;DHT22;5013;51.840;8.276;2023-06-04T01:25:03;11.40;1.00
9949;DHT22;5013;51.840;8.276;2023-06-04T01:27:29;11.30;1.00
9949;DHT22;5013;51.840;8.276;2023-06-04T01:29:55;11.30;1.00
9949;DHT22;5013;51.840;8.276;2023-06-04T01:32:26;11.20;1.00
9949;DHT22;5013;51.840;8.276;2023-06-04T01:34:52;11.20;1.00
9949;DHT22;5013;51.840;8.276;2023-06-04T01:37:17;11.20;1.00
9949;DHT22;5013;51.840;8.276;2023-06-04T01:39:43;11.20;1.00
9949;DHT22;5013;51.840;8.276;2023-06-04T01:42:09;11.20;1.00
9949;DHT22;5013;51.840;8.276;2023-06-04T01:44:35;11.10;1.00
9949;DHT22;5013;51.840;8.276;2023-06-04T01:47:00;11.00;1.00
9949;DHT22;5013;51.840;8.276;2023-06-04T01:49:26;11.00;1.00
9949;DHT22;5013;51.840;8.276;2023-06-04T01:51:52;10.90;1.00
9949;DHT22;5013;51.840;8.276;2023-06-04T01:54:18;10.90;1.00
9949;DHT22;5013;51.840;8.276;2023-06-04T01:56:43;10.80;98.80
9949;DHT22;5013;51.840;8.276;2023-06-04T01:59:09;10.80;1.00
9949;DHT22;5013;51.840;8.276;2023-06-04T02:01:37;10.80;1.00
9949;DHT22;5013;51.840;8.276;2023-06-04T02:04:03;10.70;99.90
9949;DHT22;5013;51.840;8.276;2023-06-04T02:06:29;10.70;99.90
9949;DHT22;5013;51.840;8.276;2023-06-04T02:08:55;10.70;99.90
9949;DHT22;5013;51.840;8.276;2023-06-04T02:11:21;10.60;99.90
9949;DHT22;5013;51.840;8.276;2023-06-04T02:13:46;10.50;99.90
9949;DHT22;5013;51.840;8.276;2023-06-04T02:16:13;10.40;99.90
9949;DHT22;5013;51.840;8.276;2023-06-04T02:18:38;10.40;99.90
9949;DHT22;5013;51.840;8.276;2023-06-04T02:21:04;10.30;99.90
9949;DHT22;5013;51.840;8.276;2023-06-04T02:23:30;10.30;99.90
9949;DHT22;5013;51.840;8.276;2023-06-04T02:25:55;10.20;99.90
9949;DHT22;5013;51.840;8.276;2023-06-04T02:28:21;10.10;1.00
9949;DHT22;5013;51.840;8.276;2023-06-04T02:30:46;10.10;1.00
9949;DHT22;5013;51.840;8.276;2023-06-04T02:33:13;10.00;1.00
9949;DHT22;5013;51.840;8.276;2023-06-04T02:35:38;10.00;1.00
9949;DHT22;5013;51.840;8.276;2023-06-04T02:38:05;10.00;1.00
9949;DHT22;5013;51.840;8.276;2023-06-04T02:40:31;10.00;1.00
9949;DHT22;5013;51.840;8.276;2023-06-04T02:42:56;10.00;1.00
9949;DHT22;5013;51.840;8.276;2023-06-04T02:45:22;9.80;1.00
9949;DHT22;5013;51.840;8.276;2023-06-04T02:47:48;9.80;1.00
9949;DHT22;5013;51.840;8.276;2023-06-04T02:50:14;9.90;1.00
9949;DHT22;5013;51.840;8.276;2023-06-04T02:52:41;9.90;1.00
9949;DHT22;5013;51.840;8.276;2023-06-04T02:55:07;9.90;1.00
9949;DHT22;5013;51.840;8.276;2023-06-04T02:57:34;9.90;1.00
9949;DHT22;5013;51.840;8.276;2023-06-04T03:00:00;10.00;1.00
9949;DHT22;5013;51.840;8.276;2023-06-04T03:02:26;10.00;1.00
9949;DHT22;5013;51.840;8.276;2023-06-04T03:04:53;9.90;1.00
9949;DHT22;5013;51.840;8.276;2023-06-04T03:07:20;9.90;1.00
9949;DHT22;5013;51.840;8.276;2023-06-04T03:09:48;9.90;1.00
9949;DHT22;5013;51.840;8.276;2023-06-04T03:12:14;9.90;1.00
9949;DHT22;5013;51.840;8.276;2023-06-04T03:14:39;9.90;1.00
9949;DHT22;5013;51.840;8.276;2023-06-04T03:17:05;9.90;1.00
9949;DHT22;5013;51.840;8.276;2023-06-04T03:19:40;9.90;1.00
9949;DHT22;5013;51.840;8.276;2023-06-04T03:22:08;9.90;1.00
9949;DHT22;5013;51.840;8.276;2023-06-04T03:24:39;9.90;1.00
9949;DHT22;5013;51.840;8.276;2023-06-04T03:27:05;9.90;1.00
9949;DHT22;5013;51.840;8.276;2023-06-04T03:29:33;9.90;1.00
9949;DHT22;5013;51.840;8.276;2023-06-04T03:31:59;9.80;1.00
9949;DHT22;5013;51.840;8.276;2023-06-04T03:34:25;9.80;1.00
9949;DHT22;5013;51.840;8.276;2023-06-04T03:36:55;9.80;1.00
9949;DHT22;5013;51.840;8.276;2023-06-04T03:39:21;9.90;1.00
9949;DHT22;5013;51.840;8.276;2023-06-04T03:41:48;9.90;1.00
9949;DHT22;5013;51.840;8.276;2023-06-04T03:44:17;9.90;1.00
9949;DHT22;5013;51.840;8.276;2023-06-04T03:46:43;9.80;36.60
9949;DHT22;5013;51.840;8.276;2023-06-04T03:49:09;9.80;1.00
9949;DHT22;5013;51.840;8.276;2023-06-04T03:51:36;9.80;99.90
9949;DHT22;5013;51.840;8.276;2023-06-04T03:54:02;9.80;99.90
9949;DHT22;5013;51.840;8.276;2023-06-04T03:56:28;9.90;99.90
9949;DHT22;5013;51.840;8.276;2023-06-04T03:58:54;10.00;1.00
9949;DHT22;5013;51.840;8.276;2023-06-04T04:01:19;10.00;1.00
9949;DHT22;5013;51.840;8.276;2023-06-04T04:03:45;10.10;1.00
9949;DHT22;5013;51.840;8.276;2023-06-04T04:06:13;10.10;1.00
9949;DHT22;5013;51.840;8.276;2023-06-04T04:08:40;10.20;1.00
9949;DHT22;5013;51.840;8.276;2023-06-04T04:11:08;10.20;1.00
9949;DHT22;5013;51.840;8.276;2023-06-04T04:13:33;10.20;1.00
9949;DHT22;5013;51.840;8.276;2023-06-04T04:15:59;10.30;1.00
9949;DHT22;5013;51.840;8.276;2023-06-04T04:18:25;10.30;1.00
9949;DHT22;5013;51.840;8.276;2023-06-04T04:20:51;10.40;1.00
9949;DHT22;5013;51.840;8.276;2023-06-04T04:23:16;10.40;1.00
9949;DHT22;5013;51.840;8.276;2023-06-04T04:25:43;10.50;1.00
9949;DHT22;5013;51.840;8.276;2023-06-04T04:28:09;10.60;1.00
9949;DHT22;5013;51.840;8.276;2023-06-04T04:30:35;10.70;1.00
9949;DHT22;5013;51.840;8.276;2023-06-04T04:33:02;10.70;1.00
9949;DHT22;5013;51.840;8.276;2023-06-04T04:35:30;10.80;1.00
9949;DHT22;5013;51.840;8.276;2023-06-04T04:37:58;10.80;1.00
9949;DHT22;5013;51.840;8.276;2023-06-04T04:40:24;10.90;1.00
9949;DHT22;5013;51.840;8.276;2023-06-04T04:42:50;11.10;1.00
9949;DHT22;5013;51.840;8.276;2023-06-04T04:45:15;11.30;1.00
9949;DHT22;5013;51.840;8.276;2023-06-04T04:47:42;12.50;99.90
9949;DHT22;5013;51.840;8.276;2023-06-04T04:50:08;14.70;99.90
9949;DHT22;5013;51.840;8.276;2023-06-04T04:52:34;16.40;1.00
9949;DHT22;5013;51.840;8.276;2023-06-04T04:54:59;17.80;1.00
9949;DHT22;5013;51.840;8.276;2023-06-04T04:57:25;18.60;1.00
9949;DHT22;5013;51.840;8.276;2023-06-04T04:59:50;19.50;1.00
9949;DHT22;5013;51.840;8.276;2023-06-04T05:02:16;20.10;1.00
9949;DHT22;5013;51.840;8.276;2023-06-04T05:04:41;20.60;1.00
9949;DHT22;5013;51.840;8.276;2023-06-04T05:07:07;20.30;1.00
9949;DHT22;5013;51.840;8.276;2023-06-04T05:09:33;20.30;1.00
9949;DHT22;5013;51.840;8.276;2023-06-04T05:11:58;20.30;1.00
9949;DHT22;5013;51.840;8.276;2023-06-04T05:14:24;20.10;1.00
9949;DHT22;5013;51.840;8.276;2023-06-04T05:16:49;20.00;1.00
9949;DHT22;5013;51.840;8.276;2023-06-04T05:19:18;20.20;1.00
9949;DHT22;5013;51.840;8.276;2023-06-04T05:21:44;20.20;1.00
9949;DHT22;5013;51.840;8.276;2023-06-04T05:24:10;20.30;1.00
9949;DHT22;5013;51.840;8.276;2023-06-04T05:26:36;20.10;1.00
9949;DHT22;5013;51.840;8.276;2023-06-04T05:29:02;20.10;1.00
9949;DHT22;5013;51.840;8.276;2023-06-04T05:31:29;19.90;1.00
9949;DHT22;5013;51.840;8.276;2023-06-04T05:33:59;20.00;1.00
9949;DHT22;5013;51.840;8.276;2023-06-04T05:36:27;20.00;1.00
9949;DHT22;5013;51.840;8.276;2023-06-04T05:38:53;20.20;1.00
9949;DHT22;5013;51.840;8.276;2023-06-04T05:41:23;20.30;1.00
9949;DHT22;5013;51.840;8.276;2023-06-04T05:43:49;20.20;1.00
9949;DHT22;5013;51.840;8.276;2023-06-04T05:46:15;20.30;1.00
9949;DHT22;5013;51.840;8.276;2023-06-04T05:48:41;20.40;1.00
9949;DHT22;5013;51.840;8.276;2023-06-04T05:51:06;20.20;1.00
9949;DHT22;5013;51.840;8.276;2023-06-04T05:53:32;20.40;1.00
9949;DHT22;5013;51.840;8.276;2023-06-04T05:55:58;20.60;1.00
9949;DHT22;5013;51.840;8.276;2023-06-04T05:58:24;20.70;1.00
9949;DHT22;5013;51.840;8.276;2023-06-04T06:00:50;20.70;1.00
9949;DHT22;5013;51.840;8.276;2023-06-04T06:03:15;20.70;1.00
9949;DHT22;5013;51.840;8.276;2023-06-04T06:05:45;20.60;1.00
9949;DHT22;5013;51.840;8.276;2023-06-04T06:08:10;20.50;1.00
9949;DHT22;5013;51.840;8.276;2023-06-04T06:10:36;20.60;1.00
9949;DHT22;5013;51.840;8.276;2023-06-04T06:13:02;20.80;1.00
9949;DHT22;5013;51.840;8.276;2023-06-04T06:15:27;20.90;1.00
9949;DHT22;5013;51.840;8.276;2023-06-04T06:17:54;20.90;1.00
9949;DHT22;5013;51.840;8.276;2023-06-04T06:20:20;20.90;1.00
9949;DHT22;5013;51.840;8.276;2023-06-04T06:22:47;20.90;1.00
9949;DHT22;5013;51.840;8.276;2023-06-04T06:25:13;21.00;1.00
9949;DHT22;5013;51.840;8.276;2023-06-04T06:27:41;21.00;1.00
9949;DHT22;5013;51.840;8.276;2023-06-04T06:30:07;21.20;1.00
9949;DHT22;5013;51.840;8.276;2023-06-04T06:32:33;21.10;1.00
9949;DHT22;5013;51.840;8.276;2023-06-04T06:34:58;21.10;1.00
9949;DHT22;5013;51.840;8.276;2023-06-04T06:37:24;20.60;1.00
9949;DHT22;5013;51.840;8.276;2023-06-04T06:39:49;21.00;1.00
9949;DHT22;5013;51.840;8.276;2023-06-04T06:42:15;21.10;1.00
9949;DHT22;5013;51.840;8.276;2023-06-04T06:44:43;20.90;1.00
9949;DHT22;5013;51.840;8.276;2023-06-04T06:47:09;21.00;1.00
9949;DHT22;5013;51.840;8.276;2023-06-04T06:49:41;21.50;1.00
9949;DHT22;5013;51.840;8.276;2023-06-04T06:52:07;21.70;1.00
9949;DHT22;5013;51.840;8.276;2023-06-04T06:54:33;21.90;1.00
9949;DHT22;5013;51.840;8.276;2023-06-04T06:56:58;21.60;1.00
9949;DHT22;5013;51.840;8.276;2023-06-04T06:59:24;21.80;1.00
9949;DHT22;5013;51.840;8.276;2023-06-04T07:01:50;21.40;1.00
9949;DHT22;5013;51.840;8.276;2023-06-04T07:04:16;21.60;1.00
9949;DHT22;5013;51.840;8.276;2023-06-04T07:06:42;21.90;1.00
9949;DHT22;5013;51.840;8.276;2023-06-04T07:09:08;21.90;1.00
9949;DHT22;5013;51.840;8.276;2023-06-04T07:11:34;21.90;1.00
9949;DHT22;5013;51.840;8.276;2023-06-04T07:14:00;21.80;1.00
9949;DHT22;5013;51.840;8.276;2023-06-04T07:16:28;22.10;1.00
9949;DHT22;5013;51.840;8.276;2023-06-04T07:18:53;22.40;1.00
9949;DHT22;5013;51.840;8.276;2023-06-04T07:21:19;22.60;1.00
9949;DHT22;5013;51.840;8.276;2023-06-04T07:23:46;22.50;1.00
9949;DHT22;5013;51.840;8.276;2023-06-04T07:26:15;22.40;1.00
9949;DHT22;5013;51.840;8.276;2023-06-04T07:28:41;22.50;1.00
9949;DHT22;5013;51.840;8.276;2023-06-04T07:31:07;22.50;99.90
9949;DHT22;5013;51.840;8.276;2023-06-04T07:33:32;22.40;99.90
9949;DHT22;5013;51.840;8.276;2023-06-04T07:35:58;22.40;99.90
9949;DHT22;5013;51.840;8.276;2023-06-04T07:38:24;22.40;99.90
9949;DHT22;5013;51.840;8.276;2023-06-04T07:40:50;21.90;99.90
9949;DHT22;5013;51.840;8.276;2023-06-04T07:43:16;21.90;99.90
9949;DHT22;5013;51.840;8.276;2023-06-04T07:45:41;22.30;99.90
9949;DHT22;5013;51.840;8.276;2023-06-04T07:48:09;22.70;99.90
9949;DHT22;5013;51.840;8.276;2023-06-04T07:50:36;22.70;99.90
9949;DHT22;5013;51.840;8.276;2023-06-04T07:53:01;22.80;99.90
9949;DHT22;5013;51.840;8.276;2023-06-04T07:55:27;23.10;99.90
9949;DHT22;5013;51.840;8.276;2023-06-04T07:57:52;22.90;99.90
9949;DHT22;5013;51.840;8.276;2023-06-04T08:00:18;22.50;99.90
9949;DHT22;5013;51.840;8.276;2023-06-04T08:02:44;22.60;99.90
9949;DHT22;5013;51.840;8.276;2023-06-04T08:05:09;22.90;99.90
9949;DHT22;5013;51.840;8.276;2023-06-04T08:07:37;23.10;99.90
9949;DHT22;5013;51.840;8.276;2023-06-04T08:10:03;23.30;99.90
9949;DHT22;5013;51.840;8.276;2023-06-04T08:12:29;23.50;99.90
9949;DHT22;5013;51.840;8.276;2023-06-04T08:14:54;23.70;99.90
9949;DHT22;5013;51.840;8.276;2023-06-04T08:17:22;23.80;99.90
9949;DHT22;5013;51.840;8.276;2023-06-04T08:19:48;23.50;99.90
9949;DHT22;5013;51.840;8.276;2023-06-04T08:22:13;23.30;99.90
9949;DHT22;5013;51.840;8.276;2023-06-04T08:24:39;23.10;99.90
9949;DHT22;5013;51.840;8.276;2023-06-04T08:27:04;23.30;99.90
9949;DHT22;5013;51.840;8.276;2023-06-04T08:29:31;23.40;99.90
9949;DHT22;5013;51.840;8.276;2023-06-04T08:31:56;23.60;99.90
9949;DHT22;5013;51.840;8.276;2023-06-04T08:34:22;23.80;99.90
9949;DHT22;5013;51.840;8.276;2023-06-04T08:36:47;24.00;99.90
9949;DHT22;5013;51.840;8.276;2023-06-04T08:39:13;24.20;99.90
9949;DHT22;5013;51.840;8.276;2023-06-04T08:41:49;24.30;99.90
9949;DHT22;5013;51.840;8.276;2023-06-04T08:44:16;24.40;99.90
9949;DHT22;5013;51.840;8.276;2023-06-04T08:46:44;24.30;99.90
9949;DHT22;5013;51.840;8.276;2023-06-04T08:49:12;23.80;99.90
9949;DHT22;5013;51.840;8.276;2023-06-04T08:51:38;23.80;99.90
9949;DHT22;5013;51.840;8.276;2023-06-04T08:54:04;23.80;99.90
9949;DHT22;5013;51.840;8.276;2023-06-04T08:56:31;23.70;99.90
9949;DHT22;5013;51.840;8.276;2023-06-04T08:59:02;23.50;99.90
9949;DHT22;5013;51.840;8.276;2023-06-04T09:01:29;23.50;99.90
9949;DHT22;5013;51.840;8.276;2023-06-04T09:03:55;23.70;99.90
9949;DHT22;5013;51.840;8.276;2023-06-04T09:06:27;23.70;99.90
9949;DHT22;5013;51.840;8.276;2023-06-04T09:08:58;23.80;99.90
9949;DHT22;5013;51.840;8.276;2023-06-04T09:11:35;23.80;99.90
9949;DHT22;5013;51.840;8.276;2023-06-04T09:14:03;24.10;99.90
9949;DHT22;5013;51.840;8.276;2023-06-04T09:16:30;24.30;99.90
9949;DHT22;5013;51.840;8.276;2023-06-04T09:19:02;24.20;99.90
9949;DHT22;5013;51.840;8.276;2023-06-04T09:21:28;23.90;99.90
9949;DHT22;5013;51.840;8.276;2023-06-04T09:23:53;23.90;99.90
9949;DHT22;5013;51.840;8.276;2023-06-04T09:26:19;24.00;99.90
9949;DHT22;5013;51.840;8.276;2023-06-04T09:28:46;24.10;99.90
9949;DHT22;5013;51.840;8.276;2023-06-04T09:31:16;24.40;99.90
9949;DHT22;5013;51.840;8.276;2023-06-04T09:33:51;24.40;99.90
9949;DHT22;5013;51.840;8.276;2023-06-04T09:36:17;24.40;99.90
9949;DHT22;5013;51.840;8.276;2023-06-04T09:38:43;24.50;99.90
9949;DHT22;5013;51.840;8.276;2023-06-04T09:41:13;24.40;99.90
9949;DHT22;5013;51.840;8.276;2023-06-04T09:43:38;24.60;99.90
9949;DHT22;5013;51.840;8.276;2023-06-04T09:46:13;24.60;99.90
9949;DHT22;5013;51.840;8.276;2023-06-04T09:48:39;24.50;99.90
9949;DHT22;5013;51.840;8.276;2023-06-04T09:51:15;24.60;99.90
9949;DHT22;5013;51.840;8.276;2023-06-04T09:53:53;24.60;99.90
9949;DHT22;5013;51.840;8.276;2023-06-04T09:56:20;24.70;99.90
9949;DHT22;5013;51.840;8.276;2023-06-04T09:58:53;24.80;99.90
9949;DHT22;5013;51.840;8.276;2023-06-04T10:01:19;24.40;99.90
9949;DHT22;5013;51.840;8.276;2023-06-04T10:03:47;24.70;99.90
9949;DHT22;5013;51.840;8.276;2023-06-04T10:06:15;25.00;99.90
9949;DHT22;5013;51.840;8.276;2023-06-04T10:08:43;25.10;99.90
9949;DHT22;5013;51.840;8.276;2023-06-04T10:11:12;25.00;99.90
9949;DHT22;5013;51.840;8.276;2023-06-04T10:16:17;25.00;99.90
9949;DHT22;5013;51.840;8.276;2023-06-04T10:18:43;25.30;99.90
9949;DHT22;5013;51.840;8.276;2023-06-04T10:21:10;25.50;99.90
9949;DHT22;5013;51.840;8.276;2023-06-04T10:23:38;25.50;99.90
9949;DHT22;5013;51.840;8.276;2023-06-04T10:26:04;25.60;99.90
9949;DHT22;5013;51.840;8.276;2023-06-04T10:28:31;25.20;99.90
9949;DHT22;5013;51.840;8.276;2023-06-04T10:30:58;25.40;99.90
9949;DHT22;5013;51.840;8.276;2023-06-04T10:33:23;25.20;99.90
9949;DHT22;5013;51.840;8.276;2023-06-04T10:35:54;25.50;99.90
9949;DHT22;5013;51.840;8.276;2023-06-04T10:38:21;25.50;99.90
9949;DHT22;5013;51.840;8.276;2023-06-04T10:40:48;25.20;99.90
9949;DHT22;5013;51.840;8.276;2023-06-04T10:43:15;25.30;99.90
9949;DHT22;5013;51.840;8.276;2023-06-04T10:45:44;25.40;99.90
9949;DHT22;5013;51.840;8.276;2023-06-04T10:48:12;25.50;99.90
9949;DHT22;5013;51.840;8.276;2023-06-04T10:50:51;25.20;99.90
9949;DHT22;5013;51.840;8.276;2023-06-04T10:53:18;25.50;99.90
9949;DHT22;5013;51.840;8.276;2023-06-04T10:55:48;25.50;99.90
9949;DHT22;5013;51.840;8.276;2023-06-04T10:58:15;25.90;99.90
9949;DHT22;5013;51.840;8.276;2023-06-04T11:00:42;26.00;99.90
9949;DHT22;5013;51.840;8.276;2023-06-04T11:03:10;25.90;99.90
9949;DHT22;5013;51.840;8.276;2023-06-04T11:05:41;25.70;99.90
9949;DHT22;5013;51.840;8.276;2023-06-04T11:08:08;25.70;99.90
9949;DHT22;5013;51.840;8.276;2023-06-04T11:10:45;25.60;99.90
9949;DHT22;5013;51.840;8.276;2023-06-04T11:13:11;25.80;99.90
9949;DHT22;5013;51.840;8.276;2023-06-04T11:15:41;25.80;99.90
9949;DHT22;5013;51.840;8.276;2023-06-04T11:18:07;25.70;99.90
9949;DHT22;5013;51.840;8.276;2023-06-04T11:20:32;25.80;99.90
9949;DHT22;5013;51.840;8.276;2023-06-04T11:22:59;25.70;99.90
9949;DHT22;5013;51.840;8.276;2023-06-04T11:25:29;25.50;99.90
9949;DHT22;5013;51.840;8.276;2023-06-04T11:27:59;25.50;99.90
9949;DHT22;5013;51.840;8.276;2023-06-04T11:30:27;25.60;99.90
9949;DHT22;5013;51.840;8.276;2023-06-04T11:33:05;25.20;99.90
9949;DHT22;5013;51.840;8.276;2023-06-04T11:35:40;25.50;99.90
9949;DHT22;5013;51.840;8.276;2023-06-04T11:38:06;25.70;99.90
9949;DHT22;5013;51.840;8.276;2023-06-04T11:40:31;25.40;99.90
9949;DHT22;5013;51.840;8.276;2023-06-04T11:42:57;25.70;99.90
9949;DHT22;5013;51.840;8.276;2023-06-04T11:45:23;25.70;99.90
9949;DHT22;5013;51.840;8.276;2023-06-04T11:47:53;25.90;99.90
9949;DHT22;5013;51.840;8.276;2023-06-04T11:50:21;26.00;99.90
9949;DHT22;5013;51.840;8.276;2023-06-04T11:52:48;26.10;99.90
9949;DHT22;5013;51.840;8.276;2023-06-04T11:55:15;25.80;99.90
9949;DHT22;5013;51.840;8.276;2023-06-04T11:57:43;25.80;99.90
9949;DHT22;5013;51.840;8.276;2023-06-04T12:00:09;26.00;99.90
9949;DHT22;5013;51.840;8.276;2023-06-04T12:02:39;25.80;99.90
9949;DHT22;5013;51.840;8.276;2023-06-04T12:05:14;25.80;99.90
9949;DHT22;5013;51.840;8.276;2023-06-04T12:07:40;25.80;99.90
9949;DHT22;5013;51.840;8.276;2023-06-04T12:10:10;25.70;99.90
9949;DHT22;5013;51.840;8.276;2023-06-04T12:12:37;25.80;99.90
9949;DHT22;5013;51.840;8.276;2023-06-04T12:15:03;25.80;99.90
9949;DHT22;5013;51.840;8.276;2023-06-04T12:17:31;25.80;99.90
9949;DHT22;5013;51.840;8.276;2023-06-04T12:19:56;26.10;99.90
9949;DHT22;5013;51.840;8.276;2023-06-04T12:22:24;26.20;99.90
9949;DHT22;5013;51.840;8.276;2023-06-04T12:24:53;26.30;99.90
9949;DHT22;5013;51.840;8.276;2023-06-04T12:27:20;26.40;99.90
9949;DHT22;5013;51.840;8.276;2023-06-04T12:30:01;26.40;99.90
9949;DHT22;5013;51.840;8.276;2023-06-04T12:32:28;26.40;99.90
9949;DHT22;5013;51.840;8.276;2023-06-04T12:34:54;26.50;99.90
9949;DHT22;5013;51.840;8.276;2023-06-04T12:37:23;26.40;99.90
9949;DHT22;5013;51.840;8.276;2023-06-04T12:39:50;26.30;99.90
9949;DHT22;5013;51.840;8.276;2023-06-04T12:42:18;26.30;99.90
9949;DHT22;5013;51.840;8.276;2023-06-04T12:44:44;26.10;99.90
9949;DHT22;5013;51.840;8.276;2023-06-04T12:47:09;25.90;99.90
9949;DHT22;5013;51.840;8.276;2023-06-04T12:49:36;26.00;99.90
9949;DHT22;5013;51.840;8.276;2023-06-04T12:52:02;26.00;99.90
9949;DHT22;5013;51.840;8.276;2023-06-04T12:54:27;26.10;99.90
9949;DHT22;5013;51.840;8.276;2023-06-04T12:56:54;25.80;99.90
9949;DHT22;5013;51.840;8.276;2023-06-04T12:59:22;26.00;99.90
9949;DHT22;5013;51.840;8.276;2023-06-04T13:01:47;25.70;99.90
9949;DHT22;5013;51.840;8.276;2023-06-04T13:04:13;25.80;99.90
9949;DHT22;5013;51.840;8.276;2023-06-04T13:06:39;26.00;99.90
9949;DHT22;5013;51.840;8.276;2023-06-04T13:09:07;25.80;99.90
9949;DHT22;5013;51.840;8.276;2023-06-04T13:11:38;25.90;99.90
9949;DHT22;5013;51.840;8.276;2023-06-04T13:14:06;26.20;99.90
9949;DHT22;5013;51.840;8.276;2023-06-04T13:16:32;26.50;99.90
9949;DHT22;5013;51.840;8.276;2023-06-04T13:18:57;26.50;99.90
9949;DHT22;5013;51.840;8.276;2023-06-04T13:21:23;26.40;99.90
9949;DHT22;5013;51.840;8.276;2023-06-04T13:23:48;26.20;99.90
9949;DHT22;5013;51.840;8.276;2023-06-04T13:26:16;26.00;99.90
9949;DHT22;5013;51.840;8.276;2023-06-04T13:28:41;25.70;99.90
9949;DHT22;5013;51.840;8.276;2023-06-04T13:31:07;25.70;99.90
9949;DHT22;5013;51.840;8.276;2023-06-04T13:33:33;25.60;99.90
9949;DHT22;5013;51.840;8.276;2023-06-04T13:36:00;25.70;99.90
9949;DHT22;5013;51.840;8.276;2023-06-04T13:38:27;25.70;99.90
9949;DHT22;5013;51.840;8.276;2023-06-04T13:40:53;25.90;99.90
9949;DHT22;5013;51.840;8.276;2023-06-04T13:43:18;25.80;99.90
9949;DHT22;5013;51.840;8.276;2023-06-04T13:45:44;26.10;99.90
9949;DHT22;5013;51.840;8.276;2023-06-04T13:48:11;25.80;99.90
9949;DHT22;5013;51.840;8.276;2023-06-04T13:50:37;25.90;99.90
9949;DHT22;5013;51.840;8.276;2023-06-04T13:53:02;25.90;99.90
9949;DHT22;5013;51.840;8.276;2023-06-04T13:55:29;25.80;99.90
9949;DHT22;5013;51.840;8.276;2023-06-04T13:57:55;25.90;99.90
9949;DHT22;5013;51.840;8.276;2023-06-04T14:00:21;25.90;99.90
9949;DHT22;5013;51.840;8.276;2023-06-04T14:02:48;26.10;99.90
9949;DHT22;5013;51.840;8.276;2023-06-04T14:05:13;25.70;99.90
9949;DHT22;5013;51.840;8.276;2023-06-04T14:07:40;25.60;99.90
9949;DHT22;5013;51.840;8.276;2023-06-04T14:10:06;25.60;99.90
9949;DHT22;5013;51.840;8.276;2023-06-04T14:12:32;26.10;99.90
9949;DHT22;5013;51.840;8.276;2023-06-04T14:14:57;26.10;99.90
9949;DHT22;5013;51.840;8.276;2023-06-04T14:17:23;25.90;99.90
9949;DHT22;5013;51.840;8.276;2023-06-04T14:19:48;25.70;99.90
9949;DHT22;5013;51.840;8.276;2023-06-04T14:22:14;26.00;99.90
9949;DHT22;5013;51.840;8.276;2023-06-04T14:24:40;26.20;99.90
9949;DHT22;5013;51.840;8.276;2023-06-04T14:27:06;26.50;99.90
9949;DHT22;5013;51.840;8.276;2023-06-04T14:29:32;26.20;99.90
9949;DHT22;5013;51.840;8.276;2023-06-04T14:31:58;26.20;99.90
9949;DHT22;5013;51.840;8.276;2023-06-04T14:34:24;26.10;99.90
9949;DHT22;5013;51.840;8.276;2023-06-04T14:36:49;26.30;99.90
9949;DHT22;5013;51.840;8.276;2023-06-04T14:39:15;26.10;99.90
9949;DHT22;5013;51.840;8.276;2023-06-04T14:41:40;26.20;99.90
9949;DHT22;5013;51.840;8.276;2023-06-04T14:44:06;26.00;99.90
9949;DHT22;5013;51.840;8.276;2023-06-04T14:46:32;26.00;99.90
9949;DHT22;5013;51.840;8.276;2023-06-04T14:48:57;26.10;99.90
9949;DHT22;5013;51.840;8.276;2023-06-04T14:51:23;26.10;99.90
9949;DHT22;5013;51.840;8.276;2023-06-04T14:53:48;26.00;99.90
9949;DHT22;5013;51.840;8.276;2023-06-04T14:56:16;25.70;99.90
9949;DHT22;5013;51.840;8.276;2023-06-04T14:58:42;25.70;99.90
9949;DHT22;5013;51.840;8.276;2023-06-04T15:01:08;25.80;99.90
9949;DHT22;5013;51.840;8.276;2023-06-04T15:03:37;25.80;99.90
9949;DHT22;5013;51.840;8.276;2023-06-04T15:06:03;25.80;99.90
9949;DHT22;5013;51.840;8.276;2023-06-04T15:08:28;25.70;99.90
9949;DHT22;5013;51.840;8.276;2023-06-04T15:10:54;25.70;99.90
9949;DHT22;5013;51.840;8.276;2023-06-04T15:13:19;25.60;99.90
9949;DHT22;5013;51.840;8.276;2023-06-04T15:15:45;25.60;99.90
9949;DHT22;5013;51.840;8.276;2023-06-04T15:18:10;25.60;99.90
9949;DHT22;5013;51.840;8.276;2023-06-04T15:20:36;25.70;99.90
9949;DHT22;5013;51.840;8.276;2023-06-04T15:23:01;25.70;99.90
9949;DHT22;5013;51.840;8.276;2023-06-04T15:25:27;25.70;99.90
9949;DHT22;5013;51.840;8.276;2023-06-04T15:27:53;25.70;99.90
9949;DHT22;5013;51.840;8.276;2023-06-04T15:30:18;25.60;99.90
9949;DHT22;5013;51.840;8.276;2023-06-04T15:32:46;25.50;99.90
9949;DHT22;5013;51.840;8.276;2023-06-04T15:35:11;25.60;99.90
9949;DHT22;5013;51.840;8.276;2023-06-04T15:37:37;25.50;99.90
9949;DHT22;5013;51.840;8.276;2023-06-04T15:40:03;25.40;99.90
9949;DHT22;5013;51.840;8.276;2023-06-04T15:42:31;25.50;99.90
9949;DHT22;5013;51.840;8.276;2023-06-04T15:44:57;25.50;99.90
9949;DHT22;5013;51.840;8.276;2023-06-04T15:47:22;25.60;99.90
9949;DHT22;5013;51.840;8.276;2023-06-04T15:49:48;25.70;99.90
9949;DHT22;5013;51.840;8.276;2023-06-04T15:52:14;25.60;99.90
9949;DHT22;5013;51.840;8.276;2023-06-04T15:54:39;25.60;99.90
9949;DHT22;5013;51.840;8.276;2023-06-04T15:57:05;25.40;99.90
9949;DHT22;5013;51.840;8.276;2023-06-04T15:59:31;25.20;99.90
9949;DHT22;5013;51.840;8.276;2023-06-04T16:01:57;25.20;99.90
9949;DHT22;5013;51.840;8.276;2023-06-04T16:04:22;25.20;99.90
9949;DHT22;5013;51.840;8.276;2023-06-04T16:06:48;25.20;99.90
9949;DHT22;5013;51.840;8.276;2023-06-04T16:09:13;25.10;99.90
9949;DHT22;5013;51.840;8.276;2023-06-04T16:11:39;24.90;99.90